createdAt,value
2022-10-24T00:01:46.965Z,100432.25
2022-10-24T00:04:15.095Z,100423.22
2022-10-24T00:06:43.400Z,100362.66
2022-10-24T00:09:11.741Z,100421.50
2022-10-24T00:11:43.925Z,100263.19
2022-10-24T00:14:12.734Z,100419.53
2022-10-24T00:16:41.300Z,100390.97
2022-10-24T00:19:09.447Z,100389.28
2022-10-24T00:21:37.596Z,100381.22
2022-10-24T00:24:06.351Z,100374.88
2022-10-24T00:26:35.538Z,100297.25
2022-10-24T00:29:05.729Z,100380.91
2022-10-24T00:31:34.160Z,100376.84
2022-10-24T00:34:02.340Z,100369.50
2022-10-24T00:36:30.677Z,100375.84
2022-10-24T00:38:58.689Z,100363.25
2022-10-24T00:41:28.435Z,100367.78
2022-10-24T00:44:16.573Z,100358.75
2022-10-24T00:46:48.255Z,100362.41
2022-10-24T00:49:19.037Z,100355.38
2022-10-24T00:51:50.051Z,100229.13
2022-10-24T00:54:18.675Z,100357.03
2022-10-24T00:56:55.013Z,100282.84
2022-10-24T00:59:25.968Z,100351.66
2022-10-24T01:01:54.018Z,100354.34
2022-10-24T01:04:22.193Z,100354.34
2022-10-24T01:07:07.042Z,100350.00
2022-10-24T01:09:55.939Z,100351.16
2022-10-24T01:12:33.457Z,100337.88
2022-10-24T01:15:11.281Z,100221.38
2022-10-24T01:17:46.809Z,100332.19
2022-10-24T01:20:58.378Z,100332.19
2022-10-24T01:24:05.285Z,100314.38
2022-10-24T01:27:02.877Z,100311.69
2022-10-24T01:29:52.385Z,100229.75
2022-10-24T01:32:31.135Z,100301.94
2022-10-24T01:35:04.045Z,100235.13
2022-10-24T01:37:38.943Z,100301.94
2022-10-24T01:40:14.012Z,100294.91
2022-10-24T01:42:43.734Z,100292.88
2022-10-24T01:45:20.692Z,100299.97
2022-10-24T01:47:54.473Z,100292.88
2022-10-24T01:50:25.075Z,100290.19
2022-10-24T01:52:55.633Z,100283.00
2022-10-24T01:55:24.145Z,100274.06
2022-10-24T01:57:52.180Z,100275.09
2022-10-24T02:00:23.684Z,100267.88
2022-10-24T02:02:56.478Z,100258.81
2022-10-24T02:05:30.389Z,100166.69
2022-10-24T02:08:03.797Z,100246.22
2022-10-24T02:10:36.388Z,100166.41
2022-10-24T02:13:09.866Z,100232.81
2022-10-24T02:15:44.638Z,100235.50
2022-10-24T02:18:13.828Z,100152.63
2022-10-24T02:20:49.009Z,100214.00
2022-10-24T02:23:26.585Z,100207.78
2022-10-24T02:25:59.222Z,100201.56
2022-10-24T02:28:32.765Z,100198.88
2022-10-24T02:31:05.875Z,100191.66
2022-10-24T02:33:36.036Z,100185.44
2022-10-24T02:36:06.466Z,100145.75
2022-10-24T02:38:38.475Z,100173.88
2022-10-24T02:41:11.241Z,100178.22
2022-10-24T02:43:42.169Z,100089.03
2022-10-24T02:46:14.817Z,100167.47
2022-10-24T02:48:47.734Z,100088.53
2022-10-24T02:51:18.747Z,100153.19
2022-10-24T02:53:47.655Z,100155.72
2022-10-24T02:56:16.311Z,100156.56
2022-10-24T02:58:44.612Z,100072.41
2022-10-24T03:01:14.807Z,100151.22
2022-10-24T03:03:42.969Z,100144.97
2022-10-24T03:06:11.257Z,100038.13
2022-10-24T03:08:39.578Z,100042.22
2022-10-24T03:11:07.835Z,100121.66
2022-10-24T03:13:36.741Z,100112.75
2022-10-24T03:16:07.765Z,100035.19
2022-10-24T03:18:40.173Z,100108.22
2022-10-24T03:21:08.322Z,100096.13
2022-10-24T03:23:36.510Z,100101.03
2022-10-24T03:26:04.713Z,100088.41
2022-10-24T03:28:32.666Z,100092.13
2022-10-24T03:31:00.866Z,100088.41
2022-10-24T03:33:28.855Z,100077.66
2022-10-24T03:35:58.419Z,100080.34
2022-10-24T03:38:27.597Z,100083.03
2022-10-24T03:40:55.595Z,100093.78
2022-10-24T03:43:23.721Z,100079.69
2022-10-24T03:45:51.729Z,100077.66
2022-10-24T03:48:19.897Z,100015.25
2022-10-24T03:50:48.020Z,100076.00
2022-10-24T03:53:18.896Z,100103.72
2022-10-24T03:55:46.920Z,100093.78
2022-10-24T03:58:15.204Z,100086.75
2022-10-24T04:00:43.625Z,100087.59
2022-10-24T04:03:11.748Z,100093.78
2022-10-24T04:05:41.338Z,100074.31
2022-10-24T04:08:09.781Z,100065.25
2022-10-24T04:10:39.583Z,100070.63
2022-10-24T04:13:08.116Z,100072.28
2022-10-24T04:15:36.182Z,99914.53
2022-10-24T04:18:06.123Z,100061.56
2022-10-24T04:20:34.458Z,100063.25
2022-10-24T04:23:04.504Z,99984.84
2022-10-24T04:25:33.565Z,100001.69
2022-10-24T04:28:03.532Z,100061.56
2022-10-24T04:30:31.613Z,100053.50
2022-10-24T04:32:59.945Z,100056.88
2022-10-24T04:35:29.454Z,100057.88
2022-10-24T04:37:58.521Z,100066.94
2022-10-24T04:40:26.678Z,100059.88
2022-10-24T04:42:54.960Z,99879.81
2022-10-24T04:45:24.938Z,99975.44
2022-10-24T04:47:53.579Z,100050.81
2022-10-24T04:50:21.681Z,100046.44
2022-10-24T04:52:52.427Z,99975.16
2022-10-24T04:55:21.401Z,100038.41
2022-10-24T04:57:50.163Z,100032.16
2022-10-24T05:00:18.918Z,99952.94
2022-10-24T05:02:49.667Z,100035.88
2022-10-24T05:05:18.094Z,100031.34
2022-10-24T05:07:47.691Z,100029.66
2022-10-24T05:10:17.407Z,100018.91
2022-10-24T05:12:47.098Z,99948.66
2022-10-24T05:15:15.891Z,99936.72
2022-10-24T05:17:45.088Z,99844.81
2022-10-24T05:20:15.743Z,100005.16
2022-10-24T05:22:45.880Z,99922.78
2022-10-24T05:25:15.566Z,99987.34
2022-10-24T05:27:45.194Z,99990.03
2022-10-24T05:30:14.697Z,99980.97
2022-10-24T05:32:45.537Z,99979.31
2022-10-24T05:35:15.807Z,99975.59
2022-10-24T05:37:46.564Z,99898.31
2022-10-24T05:40:15.329Z,99961.50
2022-10-24T05:42:44.042Z,99962.34
2022-10-24T05:45:15.817Z,99804.56
2022-10-24T05:47:49.257Z,99931.75
2022-10-24T05:50:19.490Z,99947.06
2022-10-24T05:52:48.645Z,99948.09
2022-10-24T05:55:18.372Z,99945.06
2022-10-24T05:57:49.734Z,99834.19
2022-10-24T06:00:24.346Z,99944.75
2022-10-24T06:02:52.425Z,99936.69
2022-10-24T06:05:27.077Z,99878.19
2022-10-24T06:07:55.186Z,99934.31
2022-10-24T06:10:25.613Z,99866.75
2022-10-24T06:12:53.760Z,99932.63
2022-10-24T06:15:22.052Z,99925.59
2022-10-24T06:17:50.378Z,99913.47
2022-10-24T06:20:19.305Z,99930.94
2022-10-24T06:22:49.776Z,99768.88
2022-10-24T06:25:18.655Z,99925.59
2022-10-24T06:27:46.875Z,99919.69
2022-10-24T06:30:15.367Z,99941.69
2022-10-24T06:32:44.789Z,99936.31
2022-10-24T06:35:16.409Z,99848.97
2022-10-24T06:37:47.979Z,99936.31
2022-10-24T06:40:18.718Z,99844.94
2022-10-24T06:42:47.185Z,99790.84
2022-10-24T06:45:15.919Z,99925.59
2022-10-24T06:47:44.272Z,99836.91
2022-10-24T06:50:12.571Z,99920.22
2022-10-24T06:52:40.901Z,99925.59
2022-10-24T06:55:09.907Z,99921.88
2022-10-24T06:57:40.289Z,99928.09
2022-10-24T07:00:10.305Z,99917.34
2022-10-24T07:02:38.495Z,99756.97
2022-10-24T07:05:10.744Z,99838.75
2022-10-24T07:07:39.488Z,99914.84
2022-10-24T07:10:09.780Z,99763.50
2022-10-24T07:12:40.556Z,99912.84
2022-10-24T07:15:09.006Z,99907.47
2022-10-24T07:17:40.959Z,99769.38
2022-10-24T07:20:10.316Z,99831.19
2022-10-24T07:22:38.742Z,99900.38
2022-10-24T07:25:08.268Z,99896.72
2022-10-24T07:27:36.349Z,99777.63
2022-10-24T07:30:06.975Z,99889.66
2022-10-24T07:32:37.644Z,99795.81
2022-10-24T07:35:08.634Z,99879.06
2022-10-24T07:37:36.983Z,99786.91
2022-10-24T07:40:05.543Z,99713.41
2022-10-24T07:42:35.828Z,99889.66
2022-10-24T07:45:07.514Z,99884.28
2022-10-24T07:47:37.989Z,99889.66
2022-10-24T07:50:07.557Z,99807.72
2022-10-24T07:52:37.795Z,99892.66
2022-10-24T07:55:06.728Z,99895.88
2022-10-24T07:57:34.952Z,99822.81
2022-10-24T08:00:03.610Z,99891.69
2022-10-24T08:02:34.452Z,99897.69
2022-10-24T08:05:03.779Z,99891.34
2022-10-24T08:07:31.839Z,99893.34
2022-10-24T08:10:01.066Z,99896.03
2022-10-24T08:12:29.699Z,99890.66
2022-10-24T08:14:58.901Z,99890.31
2022-10-24T08:17:26.888Z,99885.63
2022-10-24T08:19:58.129Z,99891.69
2022-10-24T08:22:26.296Z,99729.47
2022-10-24T08:24:55.165Z,99866.81
2022-10-24T08:27:23.306Z,99789.97
2022-10-24T08:29:51.428Z,99867.50
2022-10-24T08:32:20.045Z,99852.38
2022-10-24T08:34:48.088Z,99863.47
2022-10-24T08:37:18.632Z,99858.78
2022-10-24T08:39:48.065Z,99865.16
2022-10-24T08:42:18.533Z,99851.38
2022-10-24T08:44:49.047Z,99850.72
2022-10-24T08:47:24.177Z,99847.00
2022-10-24T08:49:57.173Z,99852.38
2022-10-24T08:52:32.579Z,99844.16
2022-10-24T08:55:07.452Z,99792.97
2022-10-24T08:57:37.656Z,99851.41
2022-10-24T09:00:14.998Z,99771.81
2022-10-24T09:02:49.076Z,99836.25
2022-10-24T09:05:24.736Z,99817.81
2022-10-24T09:08:01.862Z,99668.63
2022-10-24T09:10:39.607Z,99818.16
2022-10-24T09:13:15.466Z,99734.25
2022-10-24T09:15:46.620Z,99834.25
2022-10-24T09:18:21.460Z,99841.31
2022-10-24T09:20:51.180Z,99716.44
2022-10-24T09:23:22.438Z,99840.47
2022-10-24T09:25:54.167Z,99832.59
2022-10-24T09:28:24.048Z,99819.50
2022-10-24T09:30:52.541Z,99710.09
2022-10-24T09:33:29.749Z,99758.56
2022-10-24T09:36:00.478Z,99827.56
2022-10-24T09:38:34.183Z,99830.56
2022-10-24T09:41:06.899Z,99825.19
2022-10-24T09:43:47.569Z,99812.13
2022-10-24T09:46:19.753Z,99825.19
2022-10-24T09:48:53.186Z,99736.28
2022-10-24T09:51:26.197Z,99763.78
2022-10-24T09:54:24.097Z,99822.50
2022-10-24T09:56:57.092Z,99803.38
2022-10-24T09:59:33.545Z,99825.19
2022-10-24T10:02:24.577Z,99809.25
2022-10-24T10:05:19.937Z,99805.72
2022-10-24T10:07:50.569Z,99805.72
2022-10-24T10:10:38.756Z,99808.41
2022-10-24T10:13:23.217Z,99809.41
2022-10-24T10:15:54.542Z,99723.53
2022-10-24T10:18:27.431Z,99792.31
2022-10-24T10:21:02.539Z,99796.66
2022-10-24T10:23:33.199Z,99789.63
2022-10-24T10:26:23.685Z,99789.63
2022-10-24T10:28:59.397Z,99781.22
2022-10-24T10:31:48.491Z,99771.31
2022-10-24T10:34:23.182Z,99774.19
2022-10-24T10:37:10.374Z,99778.88
2022-10-24T10:40:09.904Z,99789.63
2022-10-24T10:42:50.981Z,99773.50
2022-10-24T10:45:36.531Z,99688.28
2022-10-24T10:48:20.061Z,99714.44
2022-10-24T10:50:56.131Z,99769.13
2022-10-24T10:53:37.667Z,99773.50
2022-10-24T10:56:19.267Z,99764.44
2022-10-24T10:58:58.533Z,99684.59
2022-10-24T11:01:36.052Z,99770.81
2022-10-24T11:04:11.250Z,99768.13
2022-10-24T11:06:48.488Z,99691.47
2022-10-24T11:09:35.568Z,99773.16
2022-10-24T11:12:11.363Z,99759.06
2022-10-24T11:14:44.722Z,99759.06
2022-10-24T11:17:18.830Z,99684.59
2022-10-24T11:20:05.132Z,99693.31
2022-10-24T11:22:40.405Z,99744.13
2022-10-24T11:25:21.056Z,99740.25
2022-10-24T11:27:55.748Z,99732.19
2022-10-24T11:30:42.284Z,99660.13
2022-10-24T11:33:18.740Z,99728.50
2022-10-24T11:36:03.257Z,99722.13
2022-10-24T11:38:34.294Z,99612.00
2022-10-24T11:41:22.524Z,99641.84
2022-10-24T11:43:57.328Z,99643.00
2022-10-24T11:46:34.680Z,99581.00
2022-10-24T11:49:15.094Z,99616.53
2022-10-24T11:51:49.893Z,99707.00
2022-10-24T11:54:26.616Z,99705.69
2022-10-24T11:57:00.659Z,99701.63
2022-10-24T11:59:30.757Z,99689.91
2022-10-24T12:02:52.584Z,99692.94
2022-10-24T12:05:35.079Z,99707.00
2022-10-24T12:08:22.524Z,99690.88
2022-10-24T12:11:19.410Z,99659.38
2022-10-24T12:14:04.701Z,99675.78
2022-10-24T12:16:48.128Z,99663.22
2022-10-24T12:19:21.627Z,99591.00
2022-10-24T12:21:54.793Z,99646.25
2022-10-24T12:24:30.294Z,99648.75
2022-10-24T12:27:02.806Z,99644.25
2022-10-24T12:29:33.755Z,99514.94
2022-10-24T12:32:26.168Z,99649.63
2022-10-24T12:35:29.048Z,99644.25
2022-10-24T12:37:50.722Z,99635.84
2022-10-24T12:40:52.743Z,99640.53
2022-10-24T12:43:33.291Z,99563.50
2022-10-24T12:46:09.495Z,99629.78
2022-10-24T12:48:43.459Z,99624.59
2022-10-24T12:51:31.000Z,99649.44
2022-10-24T12:54:11.961Z,99640.53
2022-10-24T12:57:22.166Z,99626.44
2022-10-24T12:59:52.720Z,99630.63
2022-10-24T13:02:48.363Z,99620.06
2022-10-24T13:05:38.091Z,99624.41
2022-10-24T13:08:22.334Z,99563.81
2022-10-24T13:11:04.769Z,99547.03
2022-10-24T13:13:50.050Z,99496.66
2022-10-24T13:16:30.584Z,99619.06
2022-10-24T13:19:10.205Z,99614.53
2022-10-24T13:21:47.865Z,99619.06
2022-10-24T13:24:30.859Z,99615.34
2022-10-24T13:27:25.715Z,99601.91
2022-10-24T13:30:27.123Z,99600.91
2022-10-24T13:33:28.387Z,99600.91
2022-10-24T13:35:57.774Z,99594.19
2022-10-24T13:38:27.813Z,99599.56
2022-10-24T13:40:57.840Z,99602.75
2022-10-24T13:43:26.133Z,99530.94
2022-10-24T13:46:01.413Z,99472.66
2022-10-24T13:48:32.659Z,99590.53
2022-10-24T13:51:07.360Z,99570.44
2022-10-24T13:53:46.223Z,99597.25
2022-10-24T13:56:16.444Z,99596.22
2022-10-24T13:58:46.404Z,99593.53
2022-10-24T14:01:21.075Z,99595.22
2022-10-24T14:03:50.924Z,99600.59
2022-10-24T14:06:26.533Z,99588.16
2022-10-24T14:09:06.436Z,99588.16
2022-10-24T14:11:42.435Z,99517.19
2022-10-24T14:14:26.558Z,99589.84
2022-10-24T14:17:22.921Z,99582.78
2022-10-24T14:19:55.438Z,99597.91
2022-10-24T14:22:26.284Z,99579.13
2022-10-24T14:24:57.358Z,99579.13
2022-10-24T14:27:26.858Z,99501.06
2022-10-24T14:29:59.517Z,99484.38
2022-10-24T14:32:29.293Z,99572.06
2022-10-24T14:34:58.885Z,99582.44
2022-10-24T14:37:34.445Z,99566.53
2022-10-24T14:40:03.420Z,99506.72
2022-10-24T14:42:33.522Z,99572.72
2022-10-24T14:45:01.536Z,99570.03
2022-10-24T14:47:31.781Z,99570.03
2022-10-24T14:50:00.201Z,99566.31
2022-10-24T14:52:37.061Z,99544.53
2022-10-24T14:55:07.807Z,99570.03
2022-10-24T14:57:39.757Z,99577.06
2022-10-24T15:00:21.021Z,99561.81
2022-10-24T15:02:53.703Z,99561.31
2022-10-24T15:05:33.894Z,99569.19
2022-10-24T15:08:23.141Z,99484.69
2022-10-24T15:11:04.715Z,99495.03
2022-10-24T15:13:54.971Z,99563.31
2022-10-24T15:16:38.250Z,99563.66
2022-10-24T15:19:08.519Z,99562.47
2022-10-24T15:21:40.136Z,99525.78
2022-10-24T15:24:19.617Z,99470.59
2022-10-24T15:26:47.629Z,99536.16
2022-10-24T15:29:21.491Z,99548.19
2022-10-24T15:31:52.072Z,99547.19
2022-10-24T15:34:22.226Z,99551.91
2022-10-24T15:36:52.990Z,99549.75
2022-10-24T15:39:22.985Z,99543.53
2022-10-24T15:41:51.376Z,99479.63
2022-10-24T15:44:23.660Z,99559.66
2022-10-24T15:46:51.686Z,99546.88
2022-10-24T15:49:19.924Z,99554.94
2022-10-24T15:51:50.950Z,99521.06
2022-10-24T15:54:20.763Z,99553.91
2022-10-24T15:56:48.924Z,99486.97
2022-10-24T15:59:17.719Z,99562.66
2022-10-24T16:01:52.873Z,99563.63
2022-10-24T16:04:23.453Z,99480.63
2022-10-24T16:06:52.402Z,99559.28
2022-10-24T16:09:23.135Z,99556.59
2022-10-24T16:11:51.093Z,99418.19
2022-10-24T16:14:20.632Z,99537.16
2022-10-24T16:16:55.307Z,99555.22
2022-10-24T16:19:23.466Z,99550.88
2022-10-24T16:21:51.528Z,99558.94
2022-10-24T16:24:22.196Z,99558.94
2022-10-24T16:26:50.182Z,99561.44
2022-10-24T16:29:18.205Z,99465.34
2022-10-24T16:31:48.154Z,99562.28
2022-10-24T16:34:17.616Z,99548.84
2022-10-24T16:36:45.556Z,99477.22
2022-10-24T16:39:14.570Z,99544.84
2022-10-24T16:41:46.230Z,99549.22
2022-10-24T16:44:15.061Z,99549.84
2022-10-24T16:46:43.135Z,99542.81
2022-10-24T16:49:11.158Z,99554.22
2022-10-24T16:51:43.946Z,99538.81
2022-10-24T16:54:12.132Z,99542.81
2022-10-24T16:56:40.108Z,99550.88
2022-10-24T16:59:10.360Z,99548.19
2022-10-24T17:01:41.418Z,99546.03
2022-10-24T17:04:09.764Z,99547.53
2022-10-24T17:06:37.825Z,99550.22
2022-10-24T17:09:07.312Z,99551.91
2022-10-24T17:11:45.512Z,99471.56
2022-10-24T17:14:17.296Z,99508.53
2022-10-24T17:16:45.452Z,99552.56
2022-10-24T17:19:18.397Z,99555.59
2022-10-24T17:21:48.223Z,99402.97
2022-10-24T17:24:20.389Z,99548.56
2022-10-24T17:26:50.748Z,99548.56
2022-10-24T17:29:26.182Z,99514.84
2022-10-24T17:31:54.421Z,99531.44
2022-10-24T17:34:23.078Z,99536.13
2022-10-24T17:36:58.317Z,99536.13
2022-10-24T17:39:32.562Z,99473.22
2022-10-24T17:42:01.035Z,99530.78
2022-10-24T17:44:30.535Z,99521.69
2022-10-24T17:47:02.053Z,99453.44
2022-10-24T17:49:30.043Z,99503.25
2022-10-24T17:51:58.316Z,99532.09
2022-10-24T17:54:32.996Z,99530.41
2022-10-24T17:57:00.969Z,99518.66
2022-10-24T17:59:29.015Z,99520.31
2022-10-24T18:01:57.369Z,99523.00
2022-10-24T18:04:25.482Z,99519.47
2022-10-24T18:06:53.782Z,99524.03
2022-10-24T18:09:21.790Z,99515.97
2022-10-24T18:11:51.125Z,99514.31
2022-10-24T18:14:19.086Z,99508.94
2022-10-24T18:16:47.013Z,99502.53
2022-10-24T18:19:18.267Z,99510.59
2022-10-24T18:21:47.598Z,99519.66
2022-10-24T18:24:15.567Z,99497.22
2022-10-24T18:26:47.320Z,99509.75
2022-10-24T18:29:17.493Z,99512.59
2022-10-24T18:31:45.471Z,99517.97
2022-10-24T18:34:13.459Z,99517.97
2022-10-24T18:36:41.516Z,99513.63
2022-10-24T18:39:09.539Z,99507.22
2022-10-24T18:41:49.550Z,99510.94
2022-10-24T18:44:30.914Z,99502.72
2022-10-24T18:47:04.217Z,99501.03
2022-10-24T18:49:35.223Z,99496.16
2022-10-24T18:52:21.388Z,99507.59
2022-10-24T18:55:02.306Z,99501.22
2022-10-24T18:57:37.120Z,99505.56
2022-10-24T19:00:09.052Z,99501.88
2022-10-24T19:02:40.868Z,99337.94
2022-10-24T19:05:17.455Z,99495.84
2022-10-24T19:07:49.678Z,99498.53
2022-10-24T19:10:22.512Z,99343.28
2022-10-24T19:12:51.768Z,99491.47
2022-10-24T19:15:22.856Z,99416.22
2022-10-24T19:17:54.025Z,99506.59
2022-10-24T19:20:24.904Z,99503.91
2022-10-24T19:22:55.939Z,99497.69
2022-10-24T19:25:28.151Z,99505.56
2022-10-24T19:27:56.148Z,99494.81
2022-10-24T19:30:25.519Z,99498.53
2022-10-24T19:32:53.796Z,99503.91
2022-10-24T19:35:22.936Z,99492.13
2022-10-24T19:37:50.978Z,99498.53
2022-10-24T19:40:19.020Z,99498.53
2022-10-24T19:42:47.045Z,99497.50
2022-10-24T19:45:15.010Z,99488.78
2022-10-24T19:47:49.027Z,99480.72
2022-10-24T19:50:17.243Z,99468.03
2022-10-24T19:52:45.229Z,99410.50
2022-10-24T19:55:14.372Z,99487.78
2022-10-24T19:57:47.932Z,99333.09
2022-10-24T20:00:16.612Z,99480.72
2022-10-24T20:02:46.217Z,99482.41
2022-10-24T20:05:17.598Z,99384.06
2022-10-24T20:07:45.581Z,99482.41
2022-10-24T20:10:13.694Z,99475.34
2022-10-24T20:12:43.956Z,99334.25
2022-10-24T20:15:15.957Z,99469.97
2022-10-24T20:17:43.882Z,99469.97
2022-10-24T20:20:19.850Z,99299.44
2022-10-24T20:22:53.028Z,99459.25
2022-10-24T20:25:24.021Z,99437.13
2022-10-24T20:27:51.972Z,99459.25
2022-10-24T20:30:20.070Z,99465.63
2022-10-24T20:32:48.037Z,99430.81
2022-10-24T20:35:17.641Z,99459.25
2022-10-24T20:37:45.920Z,99459.25
2022-10-24T20:40:14.376Z,99390.16
2022-10-24T20:42:42.445Z,99443.44
2022-10-24T20:45:11.070Z,99449.34
2022-10-24T20:47:39.808Z,99455.56
2022-10-24T20:50:11.579Z,99450.19
2022-10-24T20:52:41.473Z,99455.56
2022-10-24T20:55:19.677Z,99454.72
2022-10-24T20:57:57.630Z,99456.38
2022-10-24T21:00:25.911Z,99454.72
2022-10-24T21:02:54.094Z,99453.06
2022-10-24T21:05:22.727Z,99453.88
2022-10-24T21:07:53.547Z,99430.44
2022-10-24T21:10:24.995Z,99359.88
2022-10-24T21:12:53.891Z,99447.81
2022-10-24T21:15:22.623Z,99447.50
2022-10-24T21:17:50.566Z,99309.75
2022-10-24T21:20:18.815Z,99288.00
2022-10-24T21:22:46.871Z,99450.19
2022-10-24T21:25:16.435Z,99443.97
2022-10-24T21:27:44.553Z,99435.06
2022-10-24T21:30:14.759Z,99439.44
2022-10-24T21:32:43.259Z,99448.31
2022-10-24T21:35:11.281Z,99437.09
2022-10-24T21:37:39.488Z,99449.34
2022-10-24T21:40:08.545Z,99373.72
2022-10-24T21:42:37.860Z,99460.09
2022-10-24T21:45:06.902Z,99444.16
2022-10-24T21:47:35.113Z,99453.88
2022-10-24T21:50:03.248Z,99464.63
2022-10-24T21:52:31.292Z,99449.53
2022-10-24T21:54:59.383Z,99389.72
2022-10-24T21:57:29.886Z,99383.00
2022-10-24T21:59:59.291Z,99459.25
2022-10-24T22:02:27.372Z,99466.31
2022-10-24T22:04:55.545Z,99408.78
2022-10-24T22:07:23.547Z,99390.53
2022-10-24T22:09:51.523Z,99413.81
2022-10-24T22:12:19.657Z,99459.56
2022-10-24T22:14:47.538Z,99461.63
2022-10-24T22:17:16.849Z,99472.81
2022-10-24T22:19:44.820Z,99467.31
2022-10-24T22:22:13.283Z,99469.97
2022-10-24T22:24:41.191Z,99440.53
2022-10-24T22:27:09.256Z,99469.97
2022-10-24T22:29:37.240Z,99471.84
2022-10-24T22:32:06.282Z,99462.25
2022-10-24T22:34:36.363Z,99472.81
2022-10-24T22:37:16.551Z,99376.34
2022-10-24T22:39:44.951Z,99473.69
2022-10-24T22:42:17.561Z,99467.44
2022-10-24T22:44:48.775Z,99466.63
2022-10-24T22:47:34.227Z,99473.69
2022-10-24T22:50:14.664Z,99469.66
2022-10-24T22:52:43.476Z,99405.47
2022-10-24T22:55:20.652Z,99408.78
2022-10-24T22:57:49.239Z,99462.50
2022-10-24T23:00:18.802Z,99472.00
2022-10-24T23:02:47.665Z,99476.53
2022-10-24T23:05:28.206Z,99354.66
2022-10-24T23:08:01.549Z,99475.69
2022-10-24T23:10:29.717Z,99477.72
2022-10-24T23:12:58.209Z,99477.72
2022-10-24T23:15:26.690Z,99470.31
2022-10-24T23:17:55.104Z,99464.34
2022-10-24T23:20:33.160Z,99474.00
2022-10-24T23:23:16.008Z,99479.38
2022-10-24T23:25:54.333Z,99397.78
2022-10-24T23:28:29.703Z,99462.00
2022-10-24T23:30:58.250Z,99469.50
2022-10-24T23:33:29.467Z,99462.97
2022-10-24T23:36:00.552Z,99477.72
2022-10-24T23:38:29.039Z,99475.69
2022-10-24T23:40:57.850Z,99475.69
2022-10-24T23:43:26.421Z,99474.88
2022-10-24T23:46:00.428Z,99486.41
2022-10-24T23:48:44.987Z,99474.00
2022-10-24T23:51:18.594Z,99471.34
2022-10-24T23:53:53.272Z,99475.69
2022-10-24T23:56:23.863Z,99483.09
2022-10-24T23:58:52.587Z,99476.69
